createdAt,value
2024-03-02T00:02:00.501Z,95243.88
2024-03-02T00:04:27.256Z,95245.16
2024-03-02T00:06:56.049Z,95233.03
2024-03-02T00:09:22.686Z,95247.28
2024-03-02T00:11:49.170Z,95248.69
2024-03-02T00:14:16.776Z,95244.78
2024-03-02T00:16:43.676Z,95247.41
2024-03-02T00:19:10.672Z,95255.69
2024-03-02T00:21:37.330Z,95244.16
2024-03-02T00:24:22.053Z,95247.25
2024-03-02T00:26:49.013Z,95245.13
2024-03-02T00:29:20.374Z,95243.44
2024-03-02T00:31:47.455Z,95236.84
2024-03-02T00:34:17.369Z,95248.13
2024-03-02T00:36:45.053Z,95251.28
2024-03-02T00:39:15.780Z,95251.69
2024-03-02T00:41:45.447Z,95245.69
2024-03-02T00:44:14.263Z,95256.91
2024-03-02T00:46:44.748Z,95246.50
2024-03-02T00:49:25.085Z,95247.28
2024-03-02T00:51:53.962Z,95245.09
2024-03-02T00:54:22.563Z,95240.97
2024-03-02T00:56:49.836Z,95250.19
2024-03-02T00:59:16.381Z,95239.56
2024-03-02T01:01:44.025Z,95254.50
2024-03-02T01:04:10.668Z,95249.75
2024-03-02T01:06:37.435Z,95244.94
2024-03-02T01:09:04.200Z,95250.22
2024-03-02T01:11:31.287Z,95248.63
2024-03-02T01:13:57.857Z,95246.84
2024-03-02T01:16:24.480Z,95244.41
2024-03-02T01:18:51.194Z,95245.28
2024-03-02T01:21:18.181Z,95247.91
2024-03-02T01:23:44.977Z,95246.31
2024-03-02T01:26:11.476Z,95235.84
2024-03-02T01:28:37.974Z,95237.72
2024-03-02T01:31:04.666Z,95243.63
2024-03-02T01:33:31.265Z,95242.94
2024-03-02T01:35:57.991Z,95228.97
2024-03-02T01:38:24.528Z,95222.44
2024-03-02T01:40:51.213Z,95227.47
2024-03-02T01:43:18.004Z,95230.53
2024-03-02T01:45:44.659Z,95229.56
2024-03-02T01:48:11.454Z,95222.78
2024-03-02T01:50:37.984Z,95228.72
2024-03-02T01:53:04.861Z,95231.53
2024-03-02T01:55:32.203Z,95224.78
2024-03-02T01:57:59.827Z,95226.13
2024-03-02T02:00:27.352Z,95223.72
2024-03-02T02:02:54.616Z,95223.59
2024-03-02T02:05:21.406Z,95209.94
2024-03-02T02:07:48.016Z,95214.84
2024-03-02T02:10:14.622Z,95211.88
2024-03-02T02:12:41.286Z,95193.63
2024-03-02T02:15:27.753Z,95205.03
2024-03-02T02:17:55.558Z,95204.81
2024-03-02T02:20:22.207Z,95203.59
2024-03-02T02:23:02.487Z,95196.28
2024-03-02T02:25:29.852Z,95198.59
2024-03-02T02:27:58.146Z,95195.47
2024-03-02T02:30:27.618Z,95190.41
2024-03-02T02:32:54.814Z,95194.97
2024-03-02T02:35:21.439Z,95188.66
2024-03-02T02:37:49.789Z,95190.19
2024-03-02T02:40:16.841Z,95179.16
2024-03-02T02:42:43.509Z,95185.19
2024-03-02T02:45:10.246Z,95178.00
2024-03-02T02:47:36.806Z,95172.03
2024-03-02T02:50:04.502Z,95165.38
2024-03-02T02:52:40.541Z,95163.53
2024-03-02T02:55:12.314Z,95167.59
2024-03-02T02:57:41.403Z,95161.22
2024-03-02T03:00:11.677Z,95156.69
2024-03-02T03:02:39.708Z,95163.63
2024-03-02T03:05:07.577Z,95166.09
2024-03-02T03:07:35.490Z,95159.38
2024-03-02T03:10:02.318Z,95161.25
2024-03-02T03:12:28.881Z,95159.81
2024-03-02T03:14:55.454Z,95166.56
2024-03-02T03:17:22.798Z,95151.63
2024-03-02T03:19:49.419Z,95164.91
2024-03-02T03:22:15.981Z,95168.50
2024-03-02T03:24:42.528Z,95154.16
2024-03-02T03:27:10.426Z,95165.59
2024-03-02T03:29:40.072Z,95163.44
2024-03-02T03:32:08.002Z,95171.44
2024-03-02T03:34:35.074Z,95165.53
2024-03-02T03:37:01.826Z,95159.19
2024-03-02T03:39:29.179Z,95168.75
2024-03-02T03:41:56.216Z,95172.53
2024-03-02T03:44:22.717Z,95171.13
2024-03-02T03:46:49.394Z,95167.56
2024-03-02T03:49:15.838Z,95168.31
2024-03-02T03:51:42.369Z,95160.34
2024-03-02T03:54:09.287Z,95160.47
2024-03-02T03:56:35.764Z,95161.75
2024-03-02T03:59:02.775Z,95167.03
2024-03-02T04:01:29.423Z,95164.41
2024-03-02T04:03:56.146Z,95169.19
2024-03-02T04:06:22.818Z,95163.88
2024-03-02T04:08:49.393Z,95149.38
2024-03-02T04:11:16.112Z,95150.50
2024-03-02T04:13:42.626Z,95160.47
2024-03-02T04:16:09.150Z,95154.25
2024-03-02T04:18:36.227Z,95152.91
2024-03-02T04:21:02.850Z,95163.09
2024-03-02T04:23:29.351Z,95157.25
2024-03-02T04:25:55.789Z,95154.66
2024-03-02T04:28:22.308Z,95169.47
2024-03-02T04:30:48.878Z,95171.50
2024-03-02T04:33:15.531Z,95163.41
2024-03-02T04:35:42.158Z,95172.34
2024-03-02T04:38:08.611Z,95174.25
2024-03-02T04:40:35.103Z,95160.81
2024-03-02T04:43:01.782Z,95166.06
2024-03-02T04:45:28.310Z,95169.56
2024-03-02T04:47:54.829Z,95183.00
2024-03-02T04:50:21.318Z,95174.88
2024-03-02T04:52:47.844Z,95188.00
2024-03-02T04:55:17.296Z,95189.84
2024-03-02T04:57:47.512Z,95196.66
2024-03-02T05:00:14.600Z,95197.94
2024-03-02T05:02:41.117Z,95197.66
2024-03-02T05:05:07.640Z,95206.13
2024-03-02T05:07:34.190Z,95204.25
2024-03-02T05:10:00.936Z,95193.28
2024-03-02T05:12:50.405Z,95194.88
2024-03-02T05:15:17.102Z,95207.84
2024-03-02T05:17:46.994Z,95207.97
2024-03-02T05:20:13.838Z,95208.25
2024-03-02T05:22:40.853Z,95203.97
2024-03-02T05:25:08.400Z,95204.78
2024-03-02T05:27:35.357Z,95206.38
2024-03-02T05:30:02.739Z,95213.47
2024-03-02T05:32:29.352Z,95218.53
2024-03-02T05:34:56.243Z,95223.91
2024-03-02T05:37:22.916Z,95223.75
2024-03-02T05:39:49.611Z,95216.94
2024-03-02T05:42:17.905Z,95225.38
2024-03-02T05:44:44.572Z,95217.81
2024-03-02T05:47:11.114Z,95213.50
2024-03-02T05:49:37.840Z,95221.00
2024-03-02T05:52:04.543Z,95224.06
2024-03-02T05:54:31.388Z,95223.34
2024-03-02T05:56:57.930Z,95230.34
2024-03-02T05:59:24.497Z,95230.75
2024-03-02T06:01:53.698Z,95236.19
2024-03-02T06:04:20.188Z,95240.03
2024-03-02T06:06:46.978Z,95243.16
2024-03-02T06:09:13.754Z,95236.34
2024-03-02T06:11:41.724Z,95251.31
2024-03-02T06:14:09.613Z,95240.09
2024-03-02T06:16:36.378Z,95242.94
2024-03-02T06:19:03.495Z,95257.59
2024-03-02T06:21:30.303Z,95247.22
2024-03-02T06:23:57.855Z,95260.41
2024-03-02T06:26:26.102Z,95264.84
2024-03-02T06:28:53.287Z,95265.03
2024-03-02T06:31:20.136Z,95266.44
2024-03-02T06:33:46.775Z,95258.94
2024-03-02T06:36:13.437Z,95267.00
2024-03-02T06:38:43.550Z,95267.53
2024-03-02T06:41:10.455Z,95263.81
2024-03-02T06:43:36.988Z,95267.41
2024-03-02T06:46:03.794Z,95274.88
2024-03-02T06:48:31.280Z,95279.16
2024-03-02T06:50:59.533Z,95279.84
2024-03-02T06:53:26.479Z,95278.81
2024-03-02T06:55:53.103Z,95278.63
2024-03-02T06:58:19.671Z,95289.72
2024-03-02T07:00:46.411Z,95290.91
2024-03-02T07:03:13.684Z,95289.78
2024-03-02T07:05:40.530Z,95290.53
2024-03-02T07:08:07.412Z,95292.44
2024-03-02T07:10:33.950Z,95301.31
2024-03-02T07:13:00.739Z,95297.66
2024-03-02T07:16:05.588Z,95293.91
2024-03-02T07:18:32.580Z,95299.19
2024-03-02T07:21:00.637Z,95299.25
2024-03-02T07:23:28.431Z,95295.56
2024-03-02T07:28:27.878Z,95303.13
2024-03-02T07:31:02.229Z,95308.81
2024-03-02T07:33:28.936Z,95308.63
2024-03-02T07:35:56.654Z,95319.66
2024-03-02T07:38:23.759Z,95312.84
2024-03-02T07:40:54.062Z,95313.88
2024-03-02T07:43:21.021Z,95324.69
2024-03-02T07:45:48.305Z,95336.41
2024-03-02T07:48:15.818Z,95330.31
2024-03-02T07:50:42.594Z,95328.66
2024-03-02T07:53:09.472Z,95329.72
2024-03-02T07:55:36.097Z,95334.22
2024-03-02T07:58:02.876Z,95333.03
2024-03-02T08:00:29.678Z,95340.16
2024-03-02T08:02:57.117Z,95349.47
2024-03-02T08:05:23.738Z,95351.94
2024-03-02T08:07:53.847Z,95343.50
2024-03-02T08:10:20.812Z,95348.81
2024-03-02T08:12:47.432Z,95341.47
2024-03-02T08:15:14.089Z,95349.00
2024-03-02T08:17:49.502Z,95343.81
2024-03-02T08:20:16.409Z,95341.38
2024-03-02T08:22:43.339Z,95345.03
2024-03-02T08:25:10.938Z,95339.66
2024-03-02T08:27:38.100Z,95345.38
2024-03-02T08:30:07.842Z,95339.69
2024-03-02T08:32:34.663Z,95335.94
2024-03-02T08:35:01.183Z,95340.13
2024-03-02T08:37:27.865Z,95339.34
2024-03-02T08:39:54.771Z,95342.78
2024-03-02T08:42:21.502Z,95340.38
2024-03-02T08:44:48.106Z,95334.53
2024-03-02T08:47:15.001Z,95339.31
2024-03-02T08:49:41.472Z,95343.53
2024-03-02T08:52:08.123Z,95323.09
2024-03-02T08:54:35.224Z,95335.56
2024-03-02T08:57:02.038Z,95340.41
2024-03-02T08:59:29.019Z,95336.25
2024-03-02T09:01:55.766Z,95326.03
2024-03-02T09:04:25.303Z,95335.34
2024-03-02T09:06:53.449Z,95320.97
2024-03-02T09:09:19.979Z,95324.72
2024-03-02T09:11:48.294Z,95328.28
2024-03-02T09:14:16.278Z,95334.63
2024-03-02T09:16:43.955Z,95335.44
2024-03-02T09:19:11.607Z,95329.00
2024-03-02T09:21:38.602Z,95321.97
2024-03-02T09:24:05.619Z,95340.16
2024-03-02T09:26:32.687Z,95327.78
2024-03-02T09:28:59.597Z,95331.69
2024-03-02T09:31:26.174Z,95331.75
2024-03-02T09:33:52.914Z,95329.75
2024-03-02T09:36:20.977Z,95322.97
2024-03-02T09:38:48.002Z,95320.72
2024-03-02T09:41:15.903Z,95317.66
2024-03-02T09:43:42.902Z,95314.78
2024-03-02T09:46:11.191Z,95314.44
2024-03-02T09:48:38.361Z,95319.59
2024-03-02T09:51:06.126Z,95321.44
2024-03-02T09:53:35.251Z,95319.81
2024-03-02T09:56:02.064Z,95312.06
2024-03-02T09:58:28.955Z,95310.69
2024-03-02T10:00:55.584Z,95313.03
2024-03-02T10:03:25.571Z,95317.13
2024-03-02T10:05:53.087Z,95314.47
2024-03-02T10:08:19.854Z,95307.69
2024-03-02T10:10:46.943Z,95312.53
2024-03-02T10:13:14.884Z,95305.03
2024-03-02T10:15:42.438Z,95305.03
2024-03-02T10:18:13.116Z,95305.03
2024-03-02T10:20:40.863Z,95294.47
2024-03-02T10:23:15.021Z,95298.59
2024-03-02T10:25:50.944Z,95313.38
2024-03-02T10:28:21.647Z,95306.59
2024-03-02T10:30:50.631Z,95304.09
2024-03-02T10:33:18.494Z,95301.84
2024-03-02T10:35:45.363Z,95300.56
2024-03-02T10:38:12.628Z,95302.03
2024-03-02T10:40:39.251Z,95296.84
2024-03-02T10:43:07.265Z,95296.78
2024-03-02T10:45:34.605Z,95288.88
2024-03-02T10:48:03.442Z,95290.34
2024-03-02T10:50:31.110Z,95287.53
2024-03-02T10:52:57.733Z,95287.13
2024-03-02T10:55:24.729Z,95281.50
2024-03-02T10:57:54.993Z,95282.66
2024-03-02T11:00:27.986Z,95283.81
2024-03-02T11:02:59.498Z,95279.84
2024-03-02T11:05:35.337Z,95275.69
2024-03-02T11:08:04.469Z,95272.19
2024-03-02T11:10:37.924Z,95270.34
2024-03-02T11:13:10.519Z,95263.41
2024-03-02T11:15:40.294Z,95257.63
2024-03-02T11:18:09.949Z,95255.94
2024-03-02T11:20:41.276Z,95259.19
2024-03-02T11:23:09.459Z,95250.63
2024-03-02T11:25:37.031Z,95250.25
2024-03-02T11:28:05.641Z,95246.59
2024-03-02T11:30:36.146Z,95244.97
2024-03-02T11:33:10.851Z,95242.91
2024-03-02T11:35:44.006Z,95240.28
2024-03-02T11:38:10.994Z,95238.88
2024-03-02T11:40:37.594Z,95224.13
2024-03-02T11:43:06.296Z,95232.97
2024-03-02T11:45:34.791Z,95220.94
2024-03-02T11:48:01.638Z,95219.78
2024-03-02T11:50:34.673Z,95216.19
2024-03-02T11:53:02.059Z,95211.06
2024-03-02T11:55:30.256Z,95219.56
2024-03-02T11:57:57.339Z,95212.34
2024-03-02T12:00:23.914Z,95205.72
2024-03-02T12:03:10.158Z,95202.78
2024-03-02T12:05:37.609Z,95201.50
2024-03-02T12:08:06.161Z,95196.97
2024-03-02T12:10:33.386Z,95189.31
2024-03-02T12:13:04.077Z,95180.28
2024-03-02T12:15:31.910Z,95184.06
2024-03-02T12:18:00.098Z,95189.13
2024-03-02T12:20:30.288Z,95180.00
2024-03-02T12:23:01.895Z,95177.84
2024-03-02T12:25:28.712Z,95167.13
2024-03-02T12:27:57.475Z,95167.97
2024-03-02T12:30:24.801Z,95166.91
2024-03-02T12:32:52.092Z,95163.44
2024-03-02T12:35:19.399Z,95150.50
2024-03-02T12:37:47.694Z,95154.41
2024-03-02T12:40:16.001Z,95156.25
2024-03-02T12:42:45.236Z,95154.72
2024-03-02T12:45:12.718Z,95151.78
2024-03-02T12:47:41.219Z,95147.56
2024-03-02T12:50:08.700Z,95148.75
2024-03-02T12:52:35.548Z,95139.81
2024-03-02T12:55:04.835Z,95143.47
2024-03-02T12:57:33.523Z,95143.41
2024-03-02T13:00:10.270Z,95141.06
2024-03-02T13:02:40.410Z,95129.41
2024-03-02T13:05:12.119Z,95133.00
2024-03-02T13:07:39.536Z,95132.22
2024-03-02T13:10:08.860Z,95125.88
2024-03-02T13:12:36.852Z,95125.69
2024-03-02T13:15:04.914Z,95119.84
2024-03-02T13:17:36.983Z,95126.78
2024-03-02T13:20:11.786Z,95112.56
2024-03-02T13:22:38.931Z,95109.84
2024-03-02T13:25:06.582Z,95109.84
2024-03-02T13:27:34.000Z,95101.31
2024-03-02T13:30:00.841Z,95105.56
2024-03-02T13:32:27.570Z,95090.06
2024-03-02T13:34:54.284Z,95086.66
2024-03-02T13:37:22.373Z,95093.84
2024-03-02T13:39:48.957Z,95095.81
2024-03-02T13:42:16.396Z,95098.13
2024-03-02T13:44:52.079Z,95092.00
2024-03-02T13:47:18.626Z,95093.78
2024-03-02T13:49:47.065Z,95087.34
2024-03-02T13:52:17.754Z,95090.09
2024-03-02T13:54:46.501Z,95087.84
2024-03-02T13:57:13.759Z,95081.59
2024-03-02T13:59:41.550Z,95086.09
2024-03-02T14:02:09.958Z,95070.22
2024-03-02T14:04:37.057Z,95067.13
2024-03-02T14:07:04.217Z,95069.06
2024-03-02T14:09:31.328Z,95059.41
2024-03-02T14:11:58.148Z,95059.13
2024-03-02T14:14:25.559Z,95062.00
2024-03-02T14:16:52.607Z,95056.97
2024-03-02T14:19:19.320Z,95053.53
2024-03-02T14:21:45.867Z,95054.81
2024-03-02T14:24:12.473Z,95061.03
2024-03-02T14:26:39.068Z,95054.25
2024-03-02T14:29:06.466Z,95050.72
2024-03-02T14:31:33.351Z,95040.59
2024-03-02T14:34:00.881Z,95044.53
2024-03-02T14:36:29.328Z,95040.38
2024-03-02T14:38:56.586Z,95030.59
2024-03-02T14:41:25.313Z,95035.59
2024-03-02T14:43:52.096Z,95032.84
2024-03-02T14:46:19.504Z,95034.50
2024-03-02T14:48:47.528Z,95024.13
2024-03-02T14:51:14.848Z,95031.44
2024-03-02T14:53:41.673Z,95027.63
2024-03-02T14:56:08.231Z,95022.84
2024-03-02T14:58:36.567Z,95018.97
2024-03-02T15:20:26.923Z,94990.09
2024-03-02T15:22:53.726Z,94980.50
2024-03-02T15:25:20.307Z,94989.22
2024-03-02T15:27:47.055Z,94993.78
2024-03-02T15:30:13.954Z,94983.03
2024-03-02T15:32:40.413Z,94991.53
2024-03-02T15:35:07.517Z,94985.47
2024-03-02T15:37:34.032Z,94982.91
2024-03-02T15:40:06.944Z,94975.50
2024-03-02T15:42:34.626Z,94986.56
2024-03-02T15:45:01.194Z,94979.22
2024-03-02T15:47:28.057Z,94965.38
2024-03-02T15:49:54.842Z,94971.59
2024-03-02T15:52:22.418Z,94969.97
2024-03-02T15:54:52.465Z,94976.66
2024-03-02T15:57:20.059Z,94972.38
2024-03-02T15:59:46.602Z,94973.38
2024-03-02T16:02:13.361Z,94972.06
2024-03-02T16:04:39.859Z,94975.03
2024-03-02T16:07:06.584Z,94977.41
2024-03-02T16:09:33.297Z,94967.56
2024-03-02T16:11:59.868Z,94965.66
2024-03-02T16:14:26.499Z,94965.53
2024-03-02T16:16:53.260Z,94961.34
2024-03-02T16:19:29.183Z,94964.03
2024-03-02T16:21:59.526Z,94968.72
2024-03-02T16:24:26.475Z,94971.75
2024-03-02T16:26:53.238Z,94956.47
2024-03-02T16:29:19.724Z,94972.31
2024-03-02T16:31:46.210Z,94967.78
2024-03-02T16:34:13.097Z,94971.09
2024-03-02T16:36:41.699Z,94970.00
2024-03-02T16:39:10.189Z,94974.56
2024-03-02T16:41:37.055Z,94973.00
2024-03-02T16:44:07.087Z,94965.44
2024-03-02T16:46:34.184Z,94972.34
2024-03-02T16:49:00.840Z,94980.81
2024-03-02T16:51:27.441Z,94980.31
2024-03-02T16:53:54.034Z,94988.09
2024-03-02T16:56:20.526Z,94985.59
2024-03-02T16:58:47.032Z,94978.91
2024-03-02T17:01:13.676Z,94967.25
2024-03-02T17:03:40.261Z,94988.44
2024-03-02T17:06:06.873Z,94983.50
2024-03-02T17:08:33.489Z,94971.41
2024-03-02T17:11:00.239Z,94973.31
2024-03-02T17:13:26.830Z,94975.22
2024-03-02T17:15:53.406Z,94972.16
2024-03-02T17:18:20.023Z,94972.25
2024-03-02T17:20:46.497Z,94979.44
2024-03-02T17:23:13.028Z,94978.34
2024-03-02T17:25:39.527Z,94976.91
2024-03-02T17:28:28.705Z,94975.78
2024-03-02T17:30:56.787Z,94980.69
2024-03-02T17:33:23.344Z,94976.97
2024-03-02T17:35:51.164Z,94968.75
2024-03-02T17:38:18.131Z,94966.50
2024-03-02T17:40:45.723Z,94971.81
2024-03-02T17:43:13.453Z,94969.84
2024-03-02T17:45:40.900Z,94967.94
2024-03-02T17:48:12.959Z,94974.34
2024-03-02T17:50:39.865Z,94966.16
2024-03-02T17:53:06.627Z,94963.56
2024-03-02T17:55:33.246Z,94972.66
2024-03-02T17:57:59.794Z,94974.97
2024-03-02T18:00:26.494Z,94968.19
2024-03-02T18:02:52.999Z,94975.41
2024-03-02T18:05:19.533Z,94971.22
2024-03-02T18:07:46.059Z,94955.44
2024-03-02T18:10:12.876Z,94968.31
2024-03-02T18:12:39.730Z,94967.16
2024-03-02T18:15:09.848Z,94965.28
2024-03-02T18:17:36.793Z,94966.78
2024-03-02T18:20:05.788Z,94955.44
2024-03-02T18:22:33.277Z,94956.94
2024-03-02T18:25:02.768Z,94946.41
2024-03-02T18:27:29.780Z,94958.53
2024-03-02T18:29:56.410Z,94956.25
2024-03-02T18:32:22.888Z,94950.97
2024-03-02T18:34:49.680Z,94954.41
2024-03-02T18:37:17.385Z,94961.19
2024-03-02T18:39:44.159Z,94958.19
2024-03-02T18:42:10.681Z,94958.53
2024-03-02T18:44:37.255Z,94949.13
2024-03-02T18:47:04.035Z,94954.00
2024-03-02T18:49:30.658Z,94936.69
2024-03-02T18:51:57.330Z,94956.28
2024-03-02T18:54:23.880Z,94946.47
2024-03-02T18:56:50.429Z,94948.69
2024-03-02T18:59:16.940Z,94944.59
2024-03-02T19:01:43.539Z,94943.06
2024-03-02T19:04:10.184Z,94944.22
2024-03-02T19:06:36.805Z,94947.25
2024-03-02T19:09:03.496Z,94947.28
2024-03-02T19:11:30.069Z,94945.38
2024-03-02T19:13:58.221Z,94941.94
2024-03-02T19:16:24.853Z,94946.50
2024-03-02T19:18:51.374Z,94939.34
2024-03-02T19:21:17.903Z,94946.50
2024-03-02T19:23:45.644Z,94943.44
2024-03-02T19:26:19.076Z,94946.09
2024-03-02T19:28:46.256Z,94944.59
2024-03-02T19:31:14.141Z,94947.25
2024-03-02T19:33:40.718Z,94951.03
2024-03-02T19:36:07.567Z,94954.81
2024-03-02T19:38:37.713Z,94959.34
2024-03-02T19:41:06.029Z,94942.34
2024-03-02T19:43:33.089Z,94952.53
2024-03-02T19:45:59.746Z,94943.44
2024-03-02T19:48:26.277Z,94946.84
2024-03-02T19:50:53.788Z,94949.16
2024-03-02T19:53:20.328Z,94939.38
2024-03-02T19:55:47.857Z,94936.31
2024-03-02T19:58:14.643Z,94941.59
2024-03-02T20:00:41.891Z,94940.78
2024-03-02T20:03:08.526Z,94938.13
2024-03-02T20:05:35.077Z,94935.97
2024-03-02T20:08:01.704Z,94931.03
2024-03-02T20:10:28.190Z,94941.22
2024-03-02T20:12:54.837Z,94933.69
2024-03-02T20:15:21.436Z,94915.97
2024-03-02T20:17:48.231Z,94931.03
2024-03-02T20:20:16.814Z,94929.88
2024-03-02T20:22:43.931Z,94918.63
2024-03-02T20:25:14.221Z,94915.97
2024-03-02T20:27:44.866Z,94910.63
2024-03-02T20:30:12.617Z,94904.22
2024-03-02T20:32:40.036Z,94905.38
2024-03-02T20:35:07.619Z,94902.03
2024-03-02T20:37:34.363Z,94907.66
2024-03-02T20:40:02.109Z,94916.75
2024-03-02T20:42:28.833Z,94908.81
2024-03-02T20:44:55.519Z,94902.78
2024-03-02T20:47:24.000Z,94903.16
2024-03-02T20:49:52.341Z,94902.38
2024-03-02T20:52:19.300Z,94908.06
2024-03-02T20:54:46.590Z,94896.38
2024-03-02T20:57:13.405Z,94893.34
2024-03-02T20:59:40.490Z,94893.38
2024-03-02T21:02:07.631Z,94878.69
2024-03-02T21:04:34.331Z,94884.34
2024-03-02T21:07:01.097Z,94886.22
2024-03-02T21:09:27.764Z,94885.47
2024-03-02T21:11:54.368Z,94876.44
2024-03-02T21:14:20.877Z,94871.91
2024-03-02T21:16:47.605Z,94879.47
2024-03-02T21:19:14.279Z,94883.59
2024-03-02T21:21:42.967Z,94884.72
2024-03-02T21:24:09.668Z,94874.53
2024-03-02T21:26:43.606Z,94872.31
2024-03-02T21:29:12.259Z,94874.94
2024-03-02T21:31:38.981Z,94877.22
2024-03-02T21:34:06.221Z,94871.94
2024-03-02T21:36:33.930Z,94867.41
2024-03-02T21:39:04.338Z,94861.03
2024-03-02T21:41:32.266Z,94862.16
2024-03-02T21:43:58.806Z,94862.91
2024-03-02T21:46:25.427Z,94857.66
2024-03-02T21:48:53.112Z,94853.84
2024-03-02T21:51:20.001Z,94860.25
2024-03-02T21:53:46.956Z,94859.91
2024-03-02T21:56:14.157Z,94857.66
2024-03-02T21:58:40.973Z,94853.13
2024-03-02T22:01:08.089Z,94840.28
2024-03-02T22:03:34.811Z,94853.09
2024-03-02T22:06:01.385Z,94841.41
2024-03-02T22:08:28.500Z,94845.94
2024-03-02T22:10:56.118Z,94843.66
2024-03-02T22:13:22.952Z,94838.78
2024-03-02T22:15:50.170Z,94837.69
2024-03-02T22:18:16.855Z,94833.88
2024-03-02T22:20:43.490Z,94830.50
2024-03-02T22:23:09.984Z,94833.50
2024-03-02T22:25:36.613Z,94821.81
2024-03-02T22:28:03.220Z,94835.78
2024-03-02T22:30:29.809Z,94836.53
2024-03-02T22:32:58.328Z,94823.72
2024-03-02T22:35:27.941Z,94830.88
2024-03-02T22:37:55.035Z,94831.25
2024-03-02T22:40:23.955Z,94831.22
2024-03-02T22:42:50.601Z,94829.34
2024-03-02T22:45:17.217Z,94830.88
2024-03-02T22:47:43.761Z,94827.09
2024-03-02T22:50:11.216Z,94825.22
2024-03-02T22:52:37.777Z,94822.59
2024-03-02T22:55:04.883Z,94823.72
2024-03-02T22:57:31.565Z,94819.94
2024-03-02T22:59:58.082Z,94821.06
2024-03-02T23:02:27.757Z,94829.69
2024-03-02T23:04:54.291Z,94825.91
2024-03-02T23:07:21.976Z,94811.22
2024-03-02T23:09:48.966Z,94815.41
2024-03-02T23:12:15.695Z,94813.50
2024-03-02T23:14:42.353Z,94811.63
2024-03-02T23:17:08.882Z,94813.47
2024-03-02T23:19:35.501Z,94807.88
2024-03-02T23:22:02.244Z,94802.97
2024-03-02T23:24:28.824Z,94802.59
2024-03-02T23:26:55.393Z,94806.34
2024-03-02T23:29:21.993Z,94803.31
2024-03-02T23:31:48.498Z,94798.06
2024-03-02T23:34:15.087Z,94798.09
2024-03-02T23:36:41.796Z,94807.84
2024-03-02T23:39:08.377Z,94801.47
2024-03-02T23:41:35.264Z,94801.09
2024-03-02T23:44:03.025Z,94791.31
2024-03-02T23:46:29.896Z,94799.94
2024-03-02T23:48:56.912Z,94786.38
2024-03-02T23:51:23.879Z,94783.75
2024-03-02T23:53:50.622Z,94788.59
2024-03-02T23:56:17.290Z,94793.84
2024-03-02T23:58:45.772Z,94790.50
